Time;durP1;ratioP1;P1;durP2;ratioP2;P2;SDS_P1;SDS_P2;PMS_P1;PMS_P2;Temp;Humidity;BMP_temperature;BMP_pressure;BME280_temperature;BME280_humidity;BME280_pressure;Samples;Min_cycle;Max_cycle;Signal;HPM_P1;HPM_P2
2022/02/15 00:01:15;;;;;;;415.10;107.87;;;;;;;-1.86;100.00;98087.22;5064549;28;20083;-61
2022/02/15 00:03:41;;;;;;;416.10;110.13;;;;;;;-1.74;100.00;98084.13;5061838;28;20040;-60
2022/02/15 00:06:06;;;;;;;418.90;107.80;;;;;;;-1.81;100.00;98086.47;5044550;28;20479;-59
2022/02/15 00:08:31;;;;;;;418.07;111.03;;;;;;;-1.95;100.00;98084.53;5065353;28;20028;-58
2022/02/15 00:10:57;;;;;;;416.23;107.77;;;;;;;-1.89;100.00;98084.66;5064676;28;20062;-60
2022/02/15 00:13:22;;;;;;;416.73;107.53;;;;;;;-1.94;100.00;98082.88;5062584;28;20135;-59
2022/02/15 00:15:48;;;;;;;414.70;104.77;;;;;;;-1.94;100.00;98088.75;5065856;28;20074;-60
2022/02/15 00:18:13;;;;;;;416.77;105.87;;;;;;;-2.00;100.00;98092.78;5066810;28;20086;-60
2022/02/15 00:20:41;;;;;;;415.60;105.27;;;;;;;-2.06;100.00;98092.66;5067486;28;20135;-59
2022/02/15 00:23:06;;;;;;;413.13;104.80;;;;;;;-2.14;100.00;98095.00;5067094;28;20044;-59
2022/02/15 00:25:32;;;;;;;414.43;108.47;;;;;;;-2.16;100.00;98080.69;5067433;28;20270;-59
2022/02/15 00:27:57;;;;;;;417.50;108.90;;;;;;;-2.20;100.00;98083.97;5067873;28;20055;-59
2022/02/15 00:30:22;;;;;;;413.50;105.30;;;;;;;-2.16;100.00;98078.19;5067901;28;20040;-63
2022/02/15 00:32:48;;;;;;;413.90;107.27;;;;;;;-2.24;100.00;98084.72;5065311;28;20048;-60
2022/02/15 00:35:14;;;;;;;413.97;105.47;;;;;;;-2.31;100.00;98089.59;5065435;28;20123;-61
2022/02/15 00:37:40;;;;;;;417.37;106.87;;;;;;;-2.17;100.00;98091.59;5068677;28;20044;-60
2022/02/15 00:40:06;;;;;;;414.70;105.70;;;;;;;-2.14;100.00;98096.66;5068109;28;20320;-60
2022/02/15 00:42:32;;;;;;;419.50;106.87;;;;;;;-1.99;100.00;98096.97;5063712;28;20464;-60
2022/02/15 00:44:57;;;;;;;413.83;104.67;;;;;;;-2.16;100.00;98094.09;5067228;28;20266;-59
2022/02/15 00:47:22;;;;;;;412.13;103.87;;;;;;;-2.31;100.00;98091.28;5070242;28;20036;-60
2022/02/15 00:49:48;;;;;;;413.80;105.40;;;;;;;-2.41;100.00;98091.84;5065976;28;20068;-59
2022/02/15 00:52:13;;;;;;;411.53;104.73;;;;;;;-2.44;100.00;98091.78;5063525;28;20508;-60
2022/02/15 00:54:39;;;;;;;413.00;102.63;;;;;;;-2.56;100.00;98072.31;5068453;28;20044;-59
2022/02/15 00:57:04;;;;;;;413.30;104.93;;;;;;;-2.54;100.00;98088.22;5069249;28;20029;-60
2022/02/15 00:59:30;;;;;;;410.73;105.20;;;;;;;-2.56;100.00;98091.53;5063697;28;20585;-60
2022/02/15 01:01:56;;;;;;;411.23;104.33;;;;;;;-2.49;100.00;98108.41;5064741;28;20094;-58
2022/02/15 01:04:21;;;;;;;414.20;103.27;;;;;;;-2.55;100.00;98098.25;5068654;28;20037;-59
2022/02/15 01:06:47;;;;;;;413.70;107.03;;;;;;;-2.58;100.00;98090.63;5069439;28;20263;-59
2022/02/15 01:09:12;;;;;;;415.17;106.80;;;;;;;-2.62;100.00;98094.72;5065727;28;20036;-59
2022/02/15 01:11:38;;;;;;;412.30;104.97;;;;;;;-2.66;100.00;98092.09;5062893;28;20033;-59
2022/02/15 01:14:04;;;;;;;413.40;103.90;;;;;;;-2.61;100.00;98101.44;5068057;28;20037;-60
2022/02/15 01:16:29;;;;;;;413.17;102.87;;;;;;;-2.62;100.00;98108.91;5068550;28;20294;-61
2022/02/15 01:18:55;;;;;;;411.47;105.10;;;;;;;-2.57;100.00;98109.88;5063504;28;20324;-59
2022/02/15 01:21:20;;;;;;;412.77;105.60;;;;;;;-2.50;100.00;98104.19;5065713;28;20545;-59
2022/02/15 01:23:46;;;;;;;412.37;103.30;;;;;;;-2.55;100.00;98111.63;5067734;28;20062;-59
2022/02/15 01:26:11;;;;;;;410.10;104.83;;;;;;;-2.32;100.00;98102.13;5066883;28;20110;-60
2022/02/15 01:28:37;;;;;;;417.93;104.07;;;;;;;-2.19;100.00;98109.09;5065884;28;20048;-60
2022/02/15 01:31:03;;;;;;;413.00;104.03;;;;;;;-2.31;100.00;98103.81;5063284;28;20051;-60
2022/02/15 01:33:28;;;;;;;410.30;103.00;;;;;;;-2.22;100.00;98105.69;5069094;28;20063;-60
2022/02/15 01:35:54;;;;;;;409.83;103.23;;;;;;;-2.21;100.00;98112.41;5065827;28;20295;-60
2022/02/15 01:38:19;;;;;;;409.43;102.43;;;;;;;-2.26;100.00;98121.50;5064931;28;20040;-59
2022/02/15 01:40:45;;;;;;;413.87;102.77;;;;;;;-2.23;100.00;98117.38;5066336;28;20036;-59
2022/02/15 01:43:10;;;;;;;408.83;100.30;;;;;;;-2.23;100.00;98112.38;5067696;28;20036;-58
2022/02/15 01:45:36;;;;;;;408.83;101.57;;;;;;;-2.14;100.00;98112.56;5065565;28;20041;-57
2022/02/15 01:48:02;;;;;;;405.93;100.53;;;;;;;-2.13;100.00;98110.91;5065925;28;20163;-58
2022/02/15 01:50:28;;;;;;;409.20;101.00;;;;;;;-2.28;100.00;98101.38;5065295;28;20047;-60
2022/02/15 01:52:53;;;;;;;408.70;102.30;;;;;;;-2.28;100.00;98110.56;5069078;28;20262;-57
2022/02/15 01:55:19;;;;;;;409.43;102.63;;;;;;;-2.34;100.00;98104.59;5066131;28;20387;-60
2022/02/15 01:57:45;;;;;;;410.00;103.30;;;;;;;-2.32;100.00;98102.13;5063583;28;20214;-60
2022/02/15 02:00:14;;;;;;;410.57;101.73;;;;;;;-2.17;100.00;98094.94;5066833;28;20056;-58
2022/02/15 02:02:40;;;;;;;410.93;103.40;;;;;;;-2.21;100.00;98100.72;5068814;28;20266;-59
2022/02/15 02:07:51;;;;;;;410.30;104.23;;;;;;;-2.07;100.00;98114.41;5064581;28;20270;-60
2022/02/15 02:10:16;;;;;;;415.37;107.03;;;;;;;-2.01;100.00;98111.19;5067559;28;21105;-59
2022/02/15 02:12:42;;;;;;;415.73;102.70;;;;;;;-1.97;100.00;98103.75;5065297;28;20028;-59
2022/02/15 02:15:10;;;;;;;410.10;104.10;;;;;;;-2.06;100.00;98106.06;5065596;28;20046;-61
2022/02/15 02:17:36;;;;;;;411.90;105.30;;;;;;;-2.09;100.00;98105.16;5044933;28;20051;-60
2022/02/15 02:20:03;;;;;;;410.37;103.50;;;;;;;-2.11;100.00;98107.63;5065600;28;20259;-59
2022/02/15 02:22:29;;;;;;;410.37;104.10;;;;;;;-2.10;100.00;98099.28;5067174;28;20624;-59
2022/02/15 02:24:57;;;;;;;409.43;102.53;;;;;;;-2.05;100.00;98101.88;5062847;28;20259;-58
2022/02/15 02:27:26;;;;;;;411.23;105.33;;;;;;;-1.99;100.00;98110.38;5064315;28;20297;-60
2022/02/15 02:29:53;;;;;;;412.70;104.33;;;;;;;-1.97;100.00;98111.28;5066110;28;20273;-59
2022/02/15 02:32:23;;;;;;;415.27;104.93;;;;;;;-1.91;100.00;98118.13;5067066;28;21375;-60
2022/02/15 02:34:52;;;;;;;415.67;105.03;;;;;;;-1.85;100.00;98121.59;5062243;28;20695;-59
2022/02/15 02:37:17;;;;;;;411.40;104.87;;;;;;;-1.86;100.00;98127.41;5064866;28;20283;-60
2022/02/15 02:39:49;;;;;;;412.10;105.80;;;;;;;-1.90;100.00;98118.13;5066349;28;20270;-60
2022/02/15 02:42:18;;;;;;;415.20;107.13;;;;;;;-1.99;100.00;98107.03;5064694;28;20683;-60
2022/02/15 02:44:44;;;;;;;412.60;103.80;;;;;;;-2.01;100.00;98114.53;5063454;28;20824;-59
2022/02/15 02:47:13;;;;;;;412.87;107.80;;;;;;;-1.96;100.00;98118.00;5061984;28;20312;-61
2022/02/15 02:49:38;;;;;;;413.73;103.87;;;;;;;-1.91;100.00;98120.63;5067547;28;20033;-59
2022/02/15 02:52:04;;;;;;;412.23;105.97;;;;;;;-1.77;100.00;98129.28;5064507;28;20269;-59
2022/02/15 02:54:30;;;;;;;411.67;105.37;;;;;;;-1.79;100.00;98125.06;5065443;28;20924;-58
2022/02/15 02:56:56;;;;;;;413.00;106.03;;;;;;;-1.89;100.00;98126.50;5067904;28;20282;-59
2022/02/15 02:59:22;;;;;;;412.77;106.13;;;;;;;-1.95;100.00;98122.19;5070251;28;20039;-55
2022/02/15 03:01:48;;;;;;;413.17;106.93;;;;;;;-2.05;100.00;98116.97;5068408;28;20264;-58
2022/02/15 03:04:13;;;;;;;414.60;107.23;;;;;;;-2.11;100.00;98115.16;5066858;28;20127;-59
2022/02/15 03:06:39;;;;;;;414.43;106.57;;;;;;;-2.15;100.00;98130.97;5069817;28;20083;-59
2022/02/15 03:09:05;;;;;;;413.03;107.17;;;;;;;-2.22;100.00;98136.66;5069577;28;20036;-59
2022/02/15 03:11:32;;;;;;;415.17;106.40;;;;;;;-2.17;100.00;98139.28;5068677;28;20048;-60
2022/02/15 03:13:58;;;;;;;414.13;106.00;;;;;;;-2.26;100.00;98149.09;5066139;28;20302;-57
2022/02/15 03:16:24;;;;;;;413.77;105.70;;;;;;;-2.27;100.00;98144.88;5068520;28;20286;-60
2022/02/15 03:18:50;;;;;;;412.43;102.83;;;;;;;-2.30;100.00;98150.69;5071417;28;20267;-59
2022/02/15 03:21:15;;;;;;;411.97;101.17;;;;;;;-2.36;100.00;98145.53;5070201;28;20075;-56
2022/02/15 03:23:41;;;;;;;412.83;105.03;;;;;;;-2.42;100.00;98156.25;5068014;28;20098;-59
2022/02/15 03:26:07;;;;;;;411.37;102.53;;;;;;;-2.47;100.00;98157.84;5067257;28;20465;-58
2022/02/15 03:28:33;;;;;;;411.00;104.03;;;;;;;-2.49;100.00;98163.59;5067626;28;20342;-58
2022/02/15 03:30:58;;;;;;;415.97;107.57;;;;;;;-2.52;100.00;98168.56;5065281;28;20128;-58
2022/02/15 03:33:24;;;;;;;412.93;106.33;;;;;;;-2.54;100.00;98170.16;5064191;28;20166;-58
2022/02/15 03:35:49;;;;;;;416.20;106.93;;;;;;;-2.57;100.00;98172.59;5067058;28;20044;-56
2022/02/15 03:38:15;;;;;;;414.40;106.73;;;;;;;-2.57;100.00;98175.13;5067375;28;20033;-56
2022/02/15 03:43:24;;;;;;;409.80;104.03;;;;;;;-2.68;100.00;98169.84;5067822;28;20187;-56
2022/02/15 03:45:49;;;;;;;412.10;107.30;;;;;;;-2.66;100.00;98175.75;5071571;28;20259;-55
2022/02/15 03:48:15;;;;;;;412.57;105.43;;;;;;;-2.67;100.00;98178.22;5071190;28;20044;-55
2022/02/15 03:50:40;;;;;;;412.37;106.97;;;;;;;-2.63;100.00;98180.81;5071068;28;20074;-57
2022/02/15 03:53:06;;;;;;;415.00;105.57;;;;;;;-2.61;100.00;98180.88;5071854;28;20488;-57
2022/02/15 03:55:31;;;;;;;410.40;104.63;;;;;;;-2.61;100.00;98173.34;5073822;28;20044;-56
2022/02/15 03:57:57;;;;;;;412.83;105.00;;;;;;;-2.61;100.00;98179.22;5073160;28;20036;-61
2022/02/15 04:00:22;;;;;;;410.93;105.43;;;;;;;-2.61;100.00;98180.88;5067959;28;20040;-61
2022/02/15 04:02:48;;;;;;;410.07;103.27;;;;;;;-2.62;100.00;98179.16;5073841;28;20087;-61
2022/02/15 04:05:13;;;;;;;414.20;110.80;;;;;;;-2.63;100.00;98167.47;5074222;28;20067;-61
2022/02/15 04:07:39;;;;;;;410.17;102.00;;;;;;;-2.63;100.00;98187.53;5076961;28;20045;-61
2022/02/15 04:10:05;;;;;;;410.30;103.40;;;;;;;-2.64;100.00;98189.19;5072445;28;20130;-61
2022/02/15 04:12:31;;;;;;;409.37;103.47;;;;;;;-2.62;100.00;98195.06;5064397;28;20044;-60
2022/02/15 04:14:56;;;;;;;410.90;103.57;;;;;;;-2.59;100.00;98197.69;5065973;28;20262;-60
2022/02/15 04:17:21;;;;;;;410.27;106.60;;;;;;;-2.54;100.00;98196.09;5064139;28;20121;-61
2022/02/15 04:19:47;;;;;;;413.23;103.73;;;;;;;-2.49;100.00;98193.72;5062400;28;20089;-61
2022/02/15 04:22:13;;;;;;;409.43;104.30;;;;;;;-2.41;100.00;98197.25;5064304;28;20045;-58
2022/02/15 04:24:38;;;;;;;411.27;104.03;;;;;;;-2.37;100.00;98202.41;5066224;28;20481;-60
2022/02/15 04:27:04;;;;;;;410.00;103.47;;;;;;;-2.29;100.00;98190.03;5063802;28;20032;-60
2022/02/15 04:29:29;;;;;;;411.57;102.80;;;;;;;-2.11;100.00;98195.50;5063018;28;20147;-63
2022/02/15 04:31:55;;;;;;;414.10;103.17;;;;;;;-2.03;100.00;98191.50;5067849;28;20059;-60
2022/02/15 04:34:20;;;;;;;412.87;105.23;;;;;;;-1.98;100.00;98197.47;5068502;28;20086;-60
2022/02/15 04:36:46;;;;;;;415.73;103.30;;;;;;;-1.97;100.00;98196.66;5065347;28;20044;-60
2022/02/15 04:39:14;;;;;;;415.20;103.23;;;;;;;-1.95;100.00;98209.25;5065673;28;20102;-59
2022/02/15 04:41:40;;;;;;;416.20;107.90;;;;;;;-1.88;100.00;98213.63;5066009;28;20039;-60
2022/02/15 04:44:06;;;;;;;412.03;105.10;;;;;;;-1.90;100.00;98213.56;5068012;28;20373;-59
2022/02/15 04:46:32;;;;;;;412.80;105.73;;;;;;;-1.91;100.00;98211.03;5063596;28;20963;-60
2022/02/15 04:48:58;;;;;;;413.73;105.13;;;;;;;-1.84;100.00;98220.41;5061615;28;20040;-61
2022/02/15 04:51:23;;;;;;;416.90;111.63;;;;;;;-1.81;100.00;98219.63;5067844;28;20028;-60
2022/02/15 04:53:49;;;;;;;413.67;108.37;;;;;;;-1.64;100.00;98228.38;5067560;28;20597;-60
2022/02/15 04:56:14;;;;;;;414.00;110.93;;;;;;;-1.51;100.00;98223.66;5066045;28;20119;-60
2022/02/15 04:58:39;;;;;;;412.73;105.30;;;;;;;-1.52;100.00;98211.91;5065620;28;20493;-59
2022/02/15 05:01:05;;;;;;;412.63;106.80;;;;;;;-1.47;100.00;98227.94;5040691;28;20150;-59
2022/02/15 05:03:31;;;;;;;413.33;106.67;;;;;;;-1.45;100.00;98230.50;5067611;28;20059;-60
2022/02/15 05:05:56;;;;;;;413.50;105.50;;;;;;;-1.45;100.00;98226.31;5065848;28;20040;-61
2022/02/15 05:08:22;;;;;;;412.10;104.03;;;;;;;-1.38;100.00;98220.59;5063329;28;20040;-62
2022/02/15 05:10:47;;;;;;;428.57;119.87;;;;;;;-1.38;100.00;98223.13;5066074;28;20037;-60
2022/02/15 05:13:13;;;;;;;413.33;103.30;;;;;;;-1.35;100.00;98226.50;5067963;28;20560;-60
2022/02/15 05:15:39;;;;;;;414.43;106.87;;;;;;;-1.32;100.00;98227.44;5062491;28;20221;-62
2022/02/15 05:18:05;;;;;;;416.23;106.30;;;;;;;-1.27;100.00;98227.53;5062834;28;20119;-61
2022/02/15 05:20:31;;;;;;;415.43;106.37;;;;;;;-1.25;100.00;98238.44;5068242;28;20401;-59
2022/02/15 05:22:57;;;;;;;417.23;110.57;;;;;;;-1.24;100.00;98238.50;5050075;28;20876;-62
2022/02/15 05:25:22;;;;;;;417.67;110.30;;;;;;;-1.19;100.00;98241.94;5063032;28;20052;-57
2022/02/15 05:27:48;;;;;;;419.47;114.07;;;;;;;-1.19;100.00;98231.03;5067332;28;20645;-61
2022/02/15 05:30:13;;;;;;;417.17;112.70;;;;;;;-1.12;100.00;98235.38;5068692;28;20608;-61
2022/02/15 05:32:39;;;;;;;421.30;115.60;;;;;;;-1.10;100.00;98239.59;5066203;28;20060;-60
2022/02/15 05:35:07;;;;;;;420.07;112.23;;;;;;;-1.09;100.00;98240.47;5065281;28;20044;-60
2022/02/15 05:37:33;;;;;;;421.57;114.77;;;;;;;-1.06;100.00;98251.41;5066553;28;20317;-60
2022/02/15 05:39:59;;;;;;;422.63;116.07;;;;;;;-1.04;100.00;98259.88;5066162;28;20279;-60
2022/02/15 05:42:25;;;;;;;423.53;118.43;;;;;;;-1.03;100.00;98255.69;5062868;28;20036;-60
2022/02/15 05:44:50;;;;;;;423.53;112.17;;;;;;;-1.06;100.00;98258.97;5059794;28;20368;-61
2022/02/15 05:47:16;;;;;;;419.17;110.77;;;;;;;-0.90;100.00;98259.28;5059317;28;20088;-61
2022/02/15 05:52:25;;;;;;;420.67;112.43;;;;;;;-0.97;100.00;98271.75;5062141;28;20052;-61
2022/02/15 05:54:50;;;;;;;418.77;111.50;;;;;;;-0.96;100.00;98281.00;5061144;28;20259;-61
2022/02/15 05:57:16;;;;;;;426.17;112.47;;;;;;;-0.91;100.00;98288.63;5065751;28;20378;-58
2022/02/15 05:59:42;;;;;;;423.77;113.40;;;;;;;-0.97;100.00;98289.34;5040715;28;20037;-60
2022/02/15 06:02:08;;;;;;;423.80;114.17;;;;;;;-1.02;100.00;98290.91;5060771;28;21416;-60
2022/02/15 06:04:33;;;;;;;423.20;112.30;;;;;;;-0.98;100.00;98284.31;5064276;28;20298;-59
2022/02/15 06:06:59;;;;;;;424.10;114.50;;;;;;;-1.01;100.00;98291.75;5064611;28;20269;-62
2022/02/15 06:09:24;;;;;;;419.37;111.13;;;;;;;-1.06;100.00;98291.66;5066062;28;20043;-61
2022/02/15 06:11:50;;;;;;;423.90;115.50;;;;;;;-1.10;100.00;98286.53;5064775;28;20383;-59
2022/02/15 06:14:15;;;;;;;423.67;115.33;;;;;;;-1.11;100.00;98295.78;5062329;28;20033;-60
2022/02/15 06:16:41;;;;;;;425.97;115.30;;;;;;;-1.13;100.00;98292.38;5063507;28;20045;-59
2022/02/15 06:19:06;;;;;;;428.10;118.20;;;;;;;-1.14;100.00;98294.84;5064710;28;20506;-60
2022/02/15 06:21:32;;;;;;;421.13;114.03;;;;;;;-1.11;100.00;98294.91;5063941;28;20040;-58
2022/02/15 06:23:58;;;;;;;424.90;115.43;;;;;;;-1.15;100.00;98308.25;5061525;28;20442;-60
2022/02/15 06:26:24;;;;;;;422.17;114.43;;;;;;;-1.10;100.00;98314.19;5064362;28;20060;-60
2022/02/15 06:28:49;;;;;;;420.37;114.50;;;;;;;-1.06;100.00;98306.75;5065739;28;20263;-60
2022/02/15 06:31:14;;;;;;;421.80;114.10;;;;;;;-0.96;100.00;98306.16;5071958;28;20462;-60
2022/02/15 06:33:40;;;;;;;420.40;111.97;;;;;;;-0.85;100.00;98306.38;5069498;28;20080;-60
2022/02/15 06:36:06;;;;;;;420.27;114.23;;;;;;;-0.75;100.00;98307.41;5066500;28;20040;-61
2022/02/15 06:38:31;;;;;;;420.40;113.13;;;;;;;-0.62;100.00;98309.34;5067406;28;20044;-60
2022/02/15 06:40:57;;;;;;;421.37;114.20;;;;;;;-0.56;100.00;98312.00;5071533;28;20316;-59
2022/02/15 06:43:22;;;;;;;422.50;115.67;;;;;;;-0.42;100.00;98315.59;5068490;28;20126;-61
2022/02/15 06:45:48;;;;;;;424.13;118.53;;;;;;;-0.27;100.00;98318.41;5067071;28;20052;-59
2022/02/15 06:48:13;;;;;;;421.80;114.17;;;;;;;-0.11;100.00;98317.03;5067946;28;20028;-61
2022/02/15 06:50:39;;;;;;;422.37;114.73;;;;;;;-0.02;100.00;98314.66;5069155;28;20116;-58
2022/02/15 06:53:04;;;;;;;428.47;116.97;;;;;;;0.23;100.00;98324.34;5068873;28;20059;-60
2022/02/15 06:55:30;;;;;;;423.20;117.40;;;;;;;0.40;100.00;98324.59;5067828;28;20071;-60
2022/02/15 06:57:55;;;;;;;425.97;116.43;;;;;;;0.54;100.00;98325.69;5067053;28;20135;-61
2022/02/15 07:00:20;;;;;;;426.07;119.30;;;;;;;0.62;100.00;98324.13;5071134;28;20040;-61
2022/02/15 07:02:46;;;;;;;426.03;120.60;;;;;;;0.82;100.00;98322.72;5069613;28;20040;-61
2022/02/15 07:05:11;;;;;;;428.47;121.67;;;;;;;0.91;100.00;98327.91;5064815;28;20119;-61
2022/02/15 07:07:37;;;;;;;429.63;122.13;;;;;;;1.05;100.00;98328.13;5068621;28;20359;-63
2022/02/15 07:10:03;;;;;;;432.20;126.77;;;;;;;1.18;100.00;98341.75;5071021;28;20039;-61
2022/02/15 07:12:28;;;;;;;431.40;125.37;;;;;;;1.27;100.00;98335.13;5069746;28;20043;-61
2022/02/15 07:14:54;;;;;;;433.00;126.90;;;;;;;1.36;100.00;98335.22;5069546;28;20256;-60
2022/02/15 07:17:20;;;;;;;434.03;128.63;;;;;;;1.45;100.00;98328.59;5066106;28;20381;-59
2022/02/15 07:19:45;;;;;;;436.10;128.97;;;;;;;1.52;100.00;98332.91;5070989;28;20037;-61
2022/02/15 07:22:11;;;;;;;439.30;132.67;;;;;;;1.52;100.00;98340.50;5069953;28;20345;-61
2022/02/15 07:24:36;;;;;;;439.57;131.63;;;;;;;1.56;100.00;98345.59;5066596;28;20051;-61
2022/02/15 07:27:02;;;;;;;435.90;131.47;;;;;;;1.57;100.00;98339.69;5066446;28;20115;-61
2022/02/15 07:29:27;;;;;;;438.00;135.23;;;;;;;1.65;100.00;98343.19;5069874;28;20450;-61
2022/02/15 07:31:53;;;;;;;439.00;137.13;;;;;;;1.68;100.00;98344.88;5069091;28;20036;-62
2022/02/15 07:34:18;;;;;;;436.40;136.40;;;;;;;1.73;100.00;98344.13;5063929;28;20155;-62
2022/02/15 07:36:44;;;;;;;440.80;139.03;;;;;;;1.76;100.00;98343.28;5070403;28;20059;-61
2022/02/15 07:39:11;;;;;;;444.73;139.03;;;;;;;1.90;100.00;98349.34;5077128;28;20482;-60
2022/02/15 07:41:36;;;;;;;443.23;139.80;;;;;;;2.06;100.00;98348.66;5071097;28;20033;-60
2022/02/15 07:44:01;;;;;;;443.00;143.20;;;;;;;2.07;100.00;98339.41;5066606;28;20285;-59
2022/02/15 07:46:27;;;;;;;442.70;144.97;;;;;;;2.21;100.00;98353.84;5066023;28;20139;-60
2022/02/15 07:48:52;;;;;;;443.23;150.50;;;;;;;2.33;100.00;98348.09;5070356;28;20125;-62
2022/02/15 07:51:18;;;;;;;443.43;151.73;;;;;;;2.49;100.00;98344.84;5050147;28;20448;-60
2022/02/15 07:53:44;;;;;;;445.77;154.27;;;;;;;2.71;100.00;98350.94;5065582;28;20516;-59
2022/02/15 07:56:10;;;;;;;445.57;154.00;;;;;;;2.88;100.00;98346.84;5067318;28;20286;-61
2022/02/15 07:58:36;;;;;;;445.73;153.23;;;;;;;2.97;100.00;98353.66;5070168;28;20075;-61
2022/02/15 08:01:02;;;;;;;445.57;159.23;;;;;;;3.11;100.00;98355.41;5066661;28;20301;-61
2022/02/15 08:03:27;;;;;;;451.20;163.43;;;;;;;3.26;100.00;98361.41;5065169;28;20040;-62
2022/02/15 08:05:53;;;;;;;449.17;164.50;;;;;;;3.36;100.00;98361.44;5069861;28;20266;-61
2022/02/15 08:08:18;;;;;;;445.50;159.00;;;;;;;3.40;100.00;98365.69;5067685;28;20045;-60
2022/02/15 08:10:45;;;;;;;449.87;166.83;;;;;;;3.58;100.00;98357.31;5064858;28;20086;-61
2022/02/15 08:13:18;;;;;;;449.70;168.43;;;;;;;3.77;100.00;98354.03;5066770;28;20047;-60
2022/02/15 08:15:44;;;;;;;453.07;174.97;;;;;;;3.96;100.00;98343.09;5066731;28;20271;-61
2022/02/15 08:18:09;;;;;;;450.70;174.67;;;;;;;4.09;99.13;98359.19;5068717;28;20267;-61
2022/02/15 08:20:36;;;;;;;455.60;183.70;;;;;;;4.23;97.98;98364.28;5066227;28;20266;-59
2022/02/15 08:23:02;;;;;;;458.17;181.83;;;;;;;4.35;97.53;98364.31;5064746;28;20059;-62
2022/02/15 08:25:30;;;;;;;460.40;184.63;;;;;;;4.53;99.34;98361.78;5068608;28;20319;-61
2022/02/15 08:27:57;;;;;;;461.37;194.17;;;;;;;4.67;98.82;98362.63;5068933;28;20291;-61
2022/02/15 08:30:22;;;;;;;461.13;200.67;;;;;;;4.63;100.00;98365.16;5063362;28;20784;-61
2022/02/15 08:32:48;;;;;;;459.07;188.13;;;;;;;4.72;100.00;98360.94;5066263;28;20409;-60
2022/02/15 08:35:15;;;;;;;460.40;189.47;;;;;;;4.83;100.00;98369.41;5070111;28;20028;-61
2022/02/15 08:37:41;;;;;;;461.97;196.53;;;;;;;4.93;100.00;98372.78;5066742;28;21178;-61
2022/02/15 08:40:07;;;;;;;465.40;202.40;;;;;;;5.07;100.00;98373.63;5065543;28;20363;-60
2022/02/15 08:42:33;;;;;;;463.67;202.53;;;;;;;5.14;100.00;98377.81;5065804;28;20036;-58
2022/02/15 08:44:58;;;;;;;466.73;205.23;;;;;;;5.23;100.00;98377.81;5068552;28;20315;-60
2022/02/15 08:47:24;;;;;;;464.60;204.10;;;;;;;5.22;100.00;98378.66;5066260;28;20049;-61
2022/02/15 08:49:52;;;;;;;463.17;206.20;;;;;;;5.28;100.00;98385.44;5065700;28;20504;-60
2022/02/15 08:52:23;;;;;;;466.23;211.73;;;;;;;5.36;100.00;98379.47;5066292;28;20119;-61
2022/02/15 08:54:50;;;;;;;467.97;213.63;;;;;;;5.39;100.00;98387.09;5069438;28;20266;-60
2022/02/15 08:57:15;;;;;;;469.60;213.17;;;;;;;5.43;100.00;98395.59;5065232;28;20271;-60
2022/02/15 08:59:42;;;;;;;466.53;212.83;;;;;;;5.59;100.00;98393.84;5065822;28;20730;-61
2022/02/15 09:02:08;;;;;;;469.33;219.20;;;;;;;5.63;100.00;98382.81;5067061;28;20037;-60
2022/02/15 09:04:34;;;;;;;469.97;222.87;;;;;;;5.70;100.00;98389.53;5068082;28;20259;-59
2022/02/15 09:07:00;;;;;;;470.70;226.77;;;;;;;5.61;100.00;98389.56;5064273;28;20266;-59
2022/02/15 09:09:25;;;;;;;470.47;218.50;;;;;;;5.38;100.00;98395.59;5065095;28;20271;-60
2022/02/15 09:11:51;;;;;;;468.33;222.37;;;;;;;5.38;100.00;98398.13;5066502;28;20040;-61
2022/02/15 09:14:16;;;;;;;468.37;220.43;;;;;;;5.64;100.00;98392.97;5068777;28;20068;-60
2022/02/15 09:16:42;;;;;;;466.43;219.73;;;;;;;5.78;100.00;98388.66;5064656;28;20115;-61
2022/02/15 09:19:07;;;;;;;470.07;232.50;;;;;;;5.88;100.00;98387.81;5064790;28;20050;-60
2022/02/15 09:21:34;;;;;;;471.10;226.87;;;;;;;5.98;100.00;98392.00;5066849;28;20048;-61
2022/02/15 09:24:00;;;;;;;468.77;227.00;;;;;;;6.16;100.00;98380.88;5067140;28;20139;-61
2022/02/15 09:26:26;;;;;;;472.07;232.03;;;;;;;6.25;100.00;98385.94;5063806;28;20177;-61
2022/02/15 09:28:52;;;;;;;472.23;234.57;;;;;;;6.34;100.00;98390.97;5065086;28;20166;-61
2022/02/15 09:31:17;;;;;;;474.13;243.47;;;;;;;6.44;100.00;98391.75;5067527;28;20040;-60
2022/02/15 09:33:43;;;;;;;473.97;246.80;;;;;;;6.51;100.00;98390.00;5067786;28;20516;-61
2022/02/15 09:36:08;;;;;;;477.13;242.87;;;;;;;6.59;99.94;98396.75;5063501;28;20546;-61
2022/02/15 09:38:33;;;;;;;476.97;245.77;;;;;;;6.38;100.00;98395.19;5065395;28;20035;-59
2022/02/15 09:41:02;;;;;;;472.17;243.10;;;;;;;6.50;100.00;98395.94;5066944;28;20487;-61
2022/02/15 09:43:28;;;;;;;472.77;246.23;;;;;;;6.65;100.00;98391.63;5067855;28;20044;-60
2022/02/15 09:45:54;;;;;;;475.20;256.00;;;;;;;6.86;99.52;98393.16;5064335;28;20032;-60
2022/02/15 09:48:24;;;;;;;478.17;257.60;;;;;;;6.71;97.47;98380.50;5065549;28;20037;-60
2022/02/15 09:50:51;;;;;;;475.83;254.43;;;;;;;6.55;97.81;98394.22;5067998;28;20056;-58
2022/02/15 09:53:16;;;;;;;477.93;261.57;;;;;;;6.76;98.95;98397.47;5066005;28;20037;-60
2022/02/15 09:55:42;;;;;;;476.57;258.93;;;;;;;7.01;96.26;98403.19;5065001;28;20043;-61
2022/02/15 09:58:07;;;;;;;477.53;260.00;;;;;;;7.14;95.45;98411.59;5065028;28;20060;-61
2022/02/15 10:00:34;;;;;;;481.37;272.23;;;;;;;7.32;95.19;98402.06;5068087;28;20048;-60
2022/02/15 10:03:01;;;;;;;484.27;275.77;;;;;;;7.54;92.26;98412.91;5065290;28;20113;-61
2022/02/15 10:05:32;;;;;;;484.90;282.07;;;;;;;7.61;92.23;98406.03;5063867;28;20095;-60
2022/02/15 10:07:57;;;;;;;484.30;285.67;;;;;;;7.92;90.59;98412.47;5065750;28;20036;-59
2022/02/15 10:10:30;;;;;;;487.80;290.63;;;;;;;8.05;88.63;98405.50;5068514;28;20047;-60
2022/02/15 10:13:06;;;;;;;485.77;289.67;;;;;;;8.04;88.69;98403.81;5065083;28;20524;-57
2022/02/15 10:15:34;;;;;;;485.47;297.63;;;;;;;8.16;87.68;98399.38;5064972;28;20047;-57
2022/02/15 10:18:07;;;;;;;487.80;304.07;;;;;;;8.29;85.23;98389.88;5066515;28;20044;-57
2022/02/15 10:20:37;;;;;;;485.77;302.67;;;;;;;8.39;85.72;98393.16;5068896;28;20048;-57
2022/02/15 10:23:16;;;;;;;489.10;311.87;;;;;;;8.33;84.06;98398.34;5064874;28;20040;-58
2022/02/15 10:25:41;;;;;;;488.43;307.57;;;;;;;8.36;83.77;98394.03;5064431;28;20028;-60
2022/02/15 10:28:18;;;;;;;491.83;308.57;;;;;;;8.30;84.91;98394.13;5068526;28;20442;-60
2022/02/15 10:30:49;;;;;;;489.27;314.07;;;;;;;8.43;83.83;98398.22;5067893;28;20035;-60
2022/02/15 10:33:15;;;;;;;490.37;315.30;;;;;;;8.33;84.00;98391.53;5062459;28;20060;-59
2022/02/15 10:35:51;;;;;;;491.10;311.25;;;;;;;8.53;82.07;98386.16;5063973;28;20047;-59
2022/02/15 10:38:27;;;;;;;491.43;314.60;;;;;;;8.63;81.47;98380.88;5067059;28;20036;-60
2022/02/15 10:40:56;;;;;;;;;;;;;;;8.66;80.67;98374.84;5066667;28;20847;-56
2022/02/15 10:43:21;;;;;;;489.27;303.90;;;;;;;8.61;79.16;98374.09;5063395;28;20267;-62
2022/02/15 10:45:46;;;;;;;490.53;310.90;;;;;;;8.53;79.80;98379.31;5065776;28;20082;-59
2022/02/15 10:48:12;;;;;;;497.77;328.23;;;;;;;8.47;80.72;98381.13;5065318;28;20037;-63
2022/02/15 10:50:38;;;;;;;489.97;318.37;;;;;;;8.42;82.17;98370.97;5062722;28;20040;-62
2022/02/15 10:53:03;;;;;;;489.20;319.10;;;;;;;8.40;81.87;98387.19;5063001;28;20044;-60
2022/02/15 10:55:29;;;;;;;492.43;324.63;;;;;;;8.39;82.82;98386.34;5064650;28;20052;-62
2022/02/15 10:57:56;;;;;;;497.70;329.93;;;;;;;8.45;86.19;98390.50;5064519;28;20110;-62
2022/02/15 11:00:21;;;;;;;491.97;324.37;;;;;;;8.34;85.06;98383.00;5062713;28;20833;-62
2022/02/15 11:02:47;;;;;;;491.00;319.97;;;;;;;8.56;85.51;98394.63;5063499;28;20048;-61